sensor_id;sensor_type;location;lat;lon;timestamp;temperature;humidity
7077;DHT22;3579;48.956;9.154;2023-07-09T00:01:13;28.70;41.40
7077;DHT22;3579;48.956;9.154;2023-07-09T00:03:39;28.70;41.30
7077;DHT22;3579;48.956;9.154;2023-07-09T00:06:07;28.70;41.30
7077;DHT22;3579;48.956;9.154;2023-07-09T00:08:34;28.70;41.30
7077;DHT22;3579;48.956;9.154;2023-07-09T00:11:00;28.70;41.30
7077;DHT22;3579;48.956;9.154;2023-07-09T00:13:27;28.70;41.30
7077;DHT22;3579;48.956;9.154;2023-07-09T00:15:57;28.70;41.30
7077;DHT22;3579;48.956;9.154;2023-07-09T00:18:25;28.70;41.30
7077;DHT22;3579;48.956;9.154;2023-07-09T00:20:50;28.70;41.30
7077;DHT22;3579;48.956;9.154;2023-07-09T00:23:17;28.70;41.30
7077;DHT22;3579;48.956;9.154;2023-07-09T00:25:45;28.70;41.30
7077;DHT22;3579;48.956;9.154;2023-07-09T00:28:16;28.60;41.30
7077;DHT22;3579;48.956;9.154;2023-07-09T00:30:44;28.70;41.30
7077;DHT22;3579;48.956;9.154;2023-07-09T00:33:12;28.70;41.30
7077;DHT22;3579;48.956;9.154;2023-07-09T00:35:45;28.60;41.30
7077;DHT22;3579;48.956;9.154;2023-07-09T00:38:18;28.60;41.30
7077;DHT22;3579;48.956;9.154;2023-07-09T00:40:56;28.60;41.30
7077;DHT22;3579;48.956;9.154;2023-07-09T00:43:29;28.60;41.30
7077;DHT22;3579;48.956;9.154;2023-07-09T00:46:16;28.60;41.30
7077;DHT22;3579;48.956;9.154;2023-07-09T00:48:43;28.60;41.30
7077;DHT22;3579;48.956;9.154;2023-07-09T00:51:16;28.60;41.30
7077;DHT22;3579;48.956;9.154;2023-07-09T00:53:46;28.60;41.30
7077;DHT22;3579;48.956;9.154;2023-07-09T00:56:16;28.60;41.40
7077;DHT22;3579;48.956;9.154;2023-07-09T00:58:43;28.50;41.40
7077;DHT22;3579;48.956;9.154;2023-07-09T01:01:14;28.50;41.40
7077;DHT22;3579;48.956;9.154;2023-07-09T01:03:50;28.50;41.40
7077;DHT22;3579;48.956;9.154;2023-07-09T01:06:23;28.50;41.40
7077;DHT22;3579;48.956;9.154;2023-07-09T01:08:52;28.50;41.50
7077;DHT22;3579;48.956;9.154;2023-07-09T01:11:21;28.50;41.50
7077;DHT22;3579;48.956;9.154;2023-07-09T01:13:49;28.50;41.50
7077;DHT22;3579;48.956;9.154;2023-07-09T01:16:17;28.50;41.50
7077;DHT22;3579;48.956;9.154;2023-07-09T01:18:43;28.50;41.50
7077;DHT22;3579;48.956;9.154;2023-07-09T01:21:10;28.40;41.50
7077;DHT22;3579;48.956;9.154;2023-07-09T01:23:45;28.40;41.50
7077;DHT22;3579;48.956;9.154;2023-07-09T01:26:14;28.40;41.50
7077;DHT22;3579;48.956;9.154;2023-07-09T01:28:41;28.40;41.50
7077;DHT22;3579;48.956;9.154;2023-07-09T01:31:10;28.40;41.50
7077;DHT22;3579;48.956;9.154;2023-07-09T01:33:38;28.40;41.50
7077;DHT22;3579;48.956;9.154;2023-07-09T01:36:09;28.30;41.50
7077;DHT22;3579;48.956;9.154;2023-07-09T01:38:35;28.40;41.60
7077;DHT22;3579;48.956;9.154;2023-07-09T01:41:02;28.40;41.90
7077;DHT22;3579;48.956;9.154;2023-07-09T01:43:28;28.30;41.60
7077;DHT22;3579;48.956;9.154;2023-07-09T01:45:54;28.30;41.60
7077;DHT22;3579;48.956;9.154;2023-07-09T01:48:24;28.30;41.60
7077;DHT22;3579;48.956;9.154;2023-07-09T01:50:52;28.30;41.60
7077;DHT22;3579;48.956;9.154;2023-07-09T01:53:21;28.30;41.60
7077;DHT22;3579;48.956;9.154;2023-07-09T01:55:50;28.30;41.70
7077;DHT22;3579;48.956;9.154;2023-07-09T01:58:17;28.30;41.70
7077;DHT22;3579;48.956;9.154;2023-07-09T02:00:43;28.30;41.70
7077;DHT22;3579;48.956;9.154;2023-07-09T02:03:10;28.30;41.70
7077;DHT22;3579;48.956;9.154;2023-07-09T02:05:37;28.30;41.80
7077;DHT22;3579;48.956;9.154;2023-07-09T02:08:03;28.20;41.70
7077;DHT22;3579;48.956;9.154;2023-07-09T02:10:29;28.20;41.70
7077;DHT22;3579;48.956;9.154;2023-07-09T02:12:55;28.20;41.80
7077;DHT22;3579;48.956;9.154;2023-07-09T02:15:21;28.20;41.80
7077;DHT22;3579;48.956;9.154;2023-07-09T02:17:47;28.20;41.80
7077;DHT22;3579;48.956;9.154;2023-07-09T02:20:13;28.20;41.80
7077;DHT22;3579;48.956;9.154;2023-07-09T02:22:41;28.20;41.80
7077;DHT22;3579;48.956;9.154;2023-07-09T02:25:07;28.20;41.80
7077;DHT22;3579;48.956;9.154;2023-07-09T02:27:36;28.10;41.80
7077;DHT22;3579;48.956;9.154;2023-07-09T02:30:03;28.10;41.80
7077;DHT22;3579;48.956;9.154;2023-07-09T02:32:29;28.10;41.90
7077;DHT22;3579;48.956;9.154;2023-07-09T02:34:55;28.10;41.90
7077;DHT22;3579;48.956;9.154;2023-07-09T02:37:25;28.10;42.50
7077;DHT22;3579;48.956;9.154;2023-07-09T02:39:52;28.10;41.90
7077;DHT22;3579;48.956;9.154;2023-07-09T02:42:19;28.10;42.00
7077;DHT22;3579;48.956;9.154;2023-07-09T02:44:46;28.10;42.60
7077;DHT22;3579;48.956;9.154;2023-07-09T02:47:12;28.10;42.00
7077;DHT22;3579;48.956;9.154;2023-07-09T02:49:39;28.00;41.90
7077;DHT22;3579;48.956;9.154;2023-07-09T02:52:06;28.00;42.00
7077;DHT22;3579;48.956;9.154;2023-07-09T02:54:33;28.00;42.00
7077;DHT22;3579;48.956;9.154;2023-07-09T02:56:59;28.00;42.10
7077;DHT22;3579;48.956;9.154;2023-07-09T02:59:25;28.00;42.10
7077;DHT22;3579;48.956;9.154;2023-07-09T03:01:52;28.00;42.10
7077;DHT22;3579;48.956;9.154;2023-07-09T03:04:18;28.00;42.10
7077;DHT22;3579;48.956;9.154;2023-07-09T03:06:46;28.00;42.10
7077;DHT22;3579;48.956;9.154;2023-07-09T03:09:12;28.00;42.10
7077;DHT22;3579;48.956;9.154;2023-07-09T03:11:38;28.00;42.20
7077;DHT22;3579;48.956;9.154;2023-07-09T03:14:04;27.90;42.20
7077;DHT22;3579;48.956;9.154;2023-07-09T03:16:32;28.00;42.20
7077;DHT22;3579;48.956;9.154;2023-07-09T03:18:59;28.00;42.30
7077;DHT22;3579;48.956;9.154;2023-07-09T03:21:27;27.90;42.20
7077;DHT22;3579;48.956;9.154;2023-07-09T03:23:54;27.90;42.20
7077;DHT22;3579;48.956;9.154;2023-07-09T03:26:20;27.90;42.30
7077;DHT22;3579;48.956;9.154;2023-07-09T03:28:47;27.90;42.30
7077;DHT22;3579;48.956;9.154;2023-07-09T03:31:13;27.90;42.30
7077;DHT22;3579;48.956;9.154;2023-07-09T03:33:39;27.90;42.30
7077;DHT22;3579;48.956;9.154;2023-07-09T03:36:05;27.90;42.30
7077;DHT22;3579;48.956;9.154;2023-07-09T03:38:32;27.90;42.30
7077;DHT22;3579;48.956;9.154;2023-07-09T03:40:58;27.90;42.30
7077;DHT22;3579;48.956;9.154;2023-07-09T03:43:25;27.90;42.30
7077;DHT22;3579;48.956;9.154;2023-07-09T03:45:51;27.90;42.30
7077;DHT22;3579;48.956;9.154;2023-07-09T03:48:18;27.90;42.40
7077;DHT22;3579;48.956;9.154;2023-07-09T03:50:46;27.90;42.30
7077;DHT22;3579;48.956;9.154;2023-07-09T03:53:14;27.90;42.40
7077;DHT22;3579;48.956;9.154;2023-07-09T03:55:40;27.90;42.30
7077;DHT22;3579;48.956;9.154;2023-07-09T03:58:06;27.90;42.30
7077;DHT22;3579;48.956;9.154;2023-07-09T04:00:33;27.90;42.30
7077;DHT22;3579;48.956;9.154;2023-07-09T04:03:00;27.90;42.30
7077;DHT22;3579;48.956;9.154;2023-07-09T04:05:27;27.90;42.20
7077;DHT22;3579;48.956;9.154;2023-07-09T04:07:54;28.00;42.30
7077;DHT22;3579;48.956;9.154;2023-07-09T04:10:20;28.00;42.30
7077;DHT22;3579;48.956;9.154;2023-07-09T04:12:46;28.00;42.10
7077;DHT22;3579;48.956;9.154;2023-07-09T04:15:13;28.00;42.10
7077;DHT22;3579;48.956;9.154;2023-07-09T04:17:40;28.00;42.10
7077;DHT22;3579;48.956;9.154;2023-07-09T04:20:08;28.10;42.10
7077;DHT22;3579;48.956;9.154;2023-07-09T04:25:05;28.20;42.10
7077;DHT22;3579;48.956;9.154;2023-07-09T04:27:31;28.20;42.00
7077;DHT22;3579;48.956;9.154;2023-07-09T04:29:58;28.20;42.00
7077;DHT22;3579;48.956;9.154;2023-07-09T04:32:24;28.30;42.00
7077;DHT22;3579;48.956;9.154;2023-07-09T04:34:49;28.30;42.00
7077;DHT22;3579;48.956;9.154;2023-07-09T04:37:17;28.30;42.00
7077;DHT22;3579;48.956;9.154;2023-07-09T04:39:45;28.40;41.90
7077;DHT22;3579;48.956;9.154;2023-07-09T04:42:12;28.40;41.90
7077;DHT22;3579;48.956;9.154;2023-07-09T04:44:39;28.50;41.90
7077;DHT22;3579;48.956;9.154;2023-07-09T04:47:05;28.50;41.90
7077;DHT22;3579;48.956;9.154;2023-07-09T04:49:31;28.60;41.80
7077;DHT22;3579;48.956;9.154;2023-07-09T04:51:58;28.60;41.80
7077;DHT22;3579;48.956;9.154;2023-07-09T04:54:25;28.70;41.70
7077;DHT22;3579;48.956;9.154;2023-07-09T04:56:51;28.80;41.60
7077;DHT22;3579;48.956;9.154;2023-07-09T04:59:19;28.90;41.60
7077;DHT22;3579;48.956;9.154;2023-07-09T05:01:45;28.90;41.40
7077;DHT22;3579;48.956;9.154;2023-07-09T05:04:11;29.00;41.40
7077;DHT22;3579;48.956;9.154;2023-07-09T05:06:38;29.00;41.30
7077;DHT22;3579;48.956;9.154;2023-07-09T05:09:05;29.10;41.30
7077;DHT22;3579;48.956;9.154;2023-07-09T05:11:34;29.20;41.20
7077;DHT22;3579;48.956;9.154;2023-07-09T05:14:01;29.20;41.10
7077;DHT22;3579;48.956;9.154;2023-07-09T05:16:27;29.20;41.00
7077;DHT22;3579;48.956;9.154;2023-07-09T05:18:53;29.30;41.00
7077;DHT22;3579;48.956;9.154;2023-07-09T05:21:19;29.30;40.90
7077;DHT22;3579;48.956;9.154;2023-07-09T05:23:45;29.40;40.90
7077;DHT22;3579;48.956;9.154;2023-07-09T05:26:11;29.40;40.80
7077;DHT22;3579;48.956;9.154;2023-07-09T05:28:37;29.50;40.80
7077;DHT22;3579;48.956;9.154;2023-07-09T05:31:07;29.50;40.70
7077;DHT22;3579;48.956;9.154;2023-07-09T05:33:33;29.60;40.60
7077;DHT22;3579;48.956;9.154;2023-07-09T05:35:59;29.60;40.50
7077;DHT22;3579;48.956;9.154;2023-07-09T05:38:25;29.70;40.50
7077;DHT22;3579;48.956;9.154;2023-07-09T05:41:03;29.70;40.40
7077;DHT22;3579;48.956;9.154;2023-07-09T05:43:30;29.80;40.30
7077;DHT22;3579;48.956;9.154;2023-07-09T05:45:56;29.80;40.20
7077;DHT22;3579;48.956;9.154;2023-07-09T05:48:22;29.90;40.20
7077;DHT22;3579;48.956;9.154;2023-07-09T05:50:52;29.90;40.20
7077;DHT22;3579;48.956;9.154;2023-07-09T05:53:18;29.90;40.10
7077;DHT22;3579;48.956;9.154;2023-07-09T05:55:44;30.00;40.10
7077;DHT22;3579;48.956;9.154;2023-07-09T05:58:10;30.00;40.00
7077;DHT22;3579;48.956;9.154;2023-07-09T06:00:36;30.10;40.00
7077;DHT22;3579;48.956;9.154;2023-07-09T06:03:03;30.10;40.00
7077;DHT22;3579;48.956;9.154;2023-07-09T06:05:36;30.10;39.80
7077;DHT22;3579;48.956;9.154;2023-07-09T06:08:03;30.20;39.70
7077;DHT22;3579;48.956;9.154;2023-07-09T06:10:29;30.30;39.60
7077;DHT22;3579;48.956;9.154;2023-07-09T06:12:56;30.40;39.50
7077;DHT22;3579;48.956;9.154;2023-07-09T06:15:25;30.50;39.40
7077;DHT22;3579;48.956;9.154;2023-07-09T06:17:51;30.60;39.20
7077;DHT22;3579;48.956;9.154;2023-07-09T06:20:17;30.70;38.90
7077;DHT22;3579;48.956;9.154;2023-07-09T06:22:43;31.00;38.60
7077;DHT22;3579;48.956;9.154;2023-07-09T06:25:09;31.20;38.30
7077;DHT22;3579;48.956;9.154;2023-07-09T06:27:35;31.30;38.00
7077;DHT22;3579;48.956;9.154;2023-07-09T06:30:01;31.40;37.80
7077;DHT22;3579;48.956;9.154;2023-07-09T06:32:27;31.50;37.80
7077;DHT22;3579;48.956;9.154;2023-07-09T06:34:53;31.70;37.40
7077;DHT22;3579;48.956;9.154;2023-07-09T06:37:19;31.90;37.10
7077;DHT22;3579;48.956;9.154;2023-07-09T06:39:45;32.10;36.90
7077;DHT22;3579;48.956;9.154;2023-07-09T06:42:11;32.30;36.60
7077;DHT22;3579;48.956;9.154;2023-07-09T06:44:37;32.50;36.40
7077;DHT22;3579;48.956;9.154;2023-07-09T06:47:03;32.60;36.20
7077;DHT22;3579;48.956;9.154;2023-07-09T06:49:29;32.80;35.90
7077;DHT22;3579;48.956;9.154;2023-07-09T06:51:55;32.90;35.70
7077;DHT22;3579;48.956;9.154;2023-07-09T06:54:21;33.10;35.60
7077;DHT22;3579;48.956;9.154;2023-07-09T06:56:47;33.20;35.40
7077;DHT22;3579;48.956;9.154;2023-07-09T06:59:13;33.30;35.10
7077;DHT22;3579;48.956;9.154;2023-07-09T07:01:39;33.50;35.10
7077;DHT22;3579;48.956;9.154;2023-07-09T07:04:05;33.60;34.90
7077;DHT22;3579;48.956;9.154;2023-07-09T07:06:32;33.50;34.80
7077;DHT22;3579;48.956;9.154;2023-07-09T07:08:58;33.60;34.80
7077;DHT22;3579;48.956;9.154;2023-07-09T07:11:24;33.60;34.70
7077;DHT22;3579;48.956;9.154;2023-07-09T07:13:55;33.60;34.80
7077;DHT22;3579;48.956;9.154;2023-07-09T07:16:22;33.50;34.90
7077;DHT22;3579;48.956;9.154;2023-07-09T07:18:48;33.40;35.00
7077;DHT22;3579;48.956;9.154;2023-07-09T07:21:14;33.20;35.20
7077;DHT22;3579;48.956;9.154;2023-07-09T07:23:40;33.10;35.50
7077;DHT22;3579;48.956;9.154;2023-07-09T07:26:06;32.90;35.70
7077;DHT22;3579;48.956;9.154;2023-07-09T07:28:35;32.70;35.90
7077;DHT22;3579;48.956;9.154;2023-07-09T07:31:05;32.60;36.20
7077;DHT22;3579;48.956;9.154;2023-07-09T07:33:33;32.50;36.30
7077;DHT22;3579;48.956;9.154;2023-07-09T07:35:59;32.40;36.50
7077;DHT22;3579;48.956;9.154;2023-07-09T07:38:26;32.30;36.60
7077;DHT22;3579;48.956;9.154;2023-07-09T07:40:52;32.20;36.70
7077;DHT22;3579;48.956;9.154;2023-07-09T07:43:18;32.10;36.90
7077;DHT22;3579;48.956;9.154;2023-07-09T07:45:45;32.10;37.00
7077;DHT22;3579;48.956;9.154;2023-07-09T07:48:11;32.00;37.10
7077;DHT22;3579;48.956;9.154;2023-07-09T07:50:37;32.00;37.20
7077;DHT22;3579;48.956;9.154;2023-07-09T07:53:04;31.90;37.30
7077;DHT22;3579;48.956;9.154;2023-07-09T07:55:30;31.90;37.40
7077;DHT22;3579;48.956;9.154;2023-07-09T07:57:56;31.80;37.50
7077;DHT22;3579;48.956;9.154;2023-07-09T08:00:23;31.80;37.60
7077;DHT22;3579;48.956;9.154;2023-07-09T08:02:49;31.70;37.70
7077;DHT22;3579;48.956;9.154;2023-07-09T08:05:15;31.80;37.70
7077;DHT22;3579;48.956;9.154;2023-07-09T08:07:42;31.70;37.70
7077;DHT22;3579;48.956;9.154;2023-07-09T08:10:08;31.70;37.70
7077;DHT22;3579;48.956;9.154;2023-07-09T08:12:34;31.70;37.80
7077;DHT22;3579;48.956;9.154;2023-07-09T08:15:00;31.70;37.80
7077;DHT22;3579;48.956;9.154;2023-07-09T08:17:26;31.70;37.90
7077;DHT22;3579;48.956;9.154;2023-07-09T08:19:53;31.70;38.00
7077;DHT22;3579;48.956;9.154;2023-07-09T08:22:21;31.60;37.90
7077;DHT22;3579;48.956;9.154;2023-07-09T08:24:50;31.60;37.90
7077;DHT22;3579;48.956;9.154;2023-07-09T08:27:17;31.60;38.00
7077;DHT22;3579;48.956;9.154;2023-07-09T08:29:44;31.60;38.00
7077;DHT22;3579;48.956;9.154;2023-07-09T08:32:13;31.60;38.00
7077;DHT22;3579;48.956;9.154;2023-07-09T08:34:40;31.60;38.10
7077;DHT22;3579;48.956;9.154;2023-07-09T08:37:09;31.60;38.10
7077;DHT22;3579;48.956;9.154;2023-07-09T08:39:36;31.60;38.10
7077;DHT22;3579;48.956;9.154;2023-07-09T08:42:03;31.60;38.10
7077;DHT22;3579;48.956;9.154;2023-07-09T08:47:16;31.60;38.10
7077;DHT22;3579;48.956;9.154;2023-07-09T08:49:47;31.60;38.20
7077;DHT22;3579;48.956;9.154;2023-07-09T08:52:24;31.60;38.20
7077;DHT22;3579;48.956;9.154;2023-07-09T08:54:52;31.60;38.20
7077;DHT22;3579;48.956;9.154;2023-07-09T08:57:26;31.70;38.20
7077;DHT22;3579;48.956;9.154;2023-07-09T08:59:59;31.70;38.20
7077;DHT22;3579;48.956;9.154;2023-07-09T09:02:35;31.70;38.20
7077;DHT22;3579;48.956;9.154;2023-07-09T09:05:03;31.70;38.20
7077;DHT22;3579;48.956;9.154;2023-07-09T09:07:44;31.70;38.20
7077;DHT22;3579;48.956;9.154;2023-07-09T09:10:14;31.70;38.20
7077;DHT22;3579;48.956;9.154;2023-07-09T09:13:12;31.70;38.20
7077;DHT22;3579;48.956;9.154;2023-07-09T09:15:45;31.70;38.20
7077;DHT22;3579;48.956;9.154;2023-07-09T09:20:41;31.70;38.30
7077;DHT22;3579;48.956;9.154;2023-07-09T09:25:37;31.70;38.30
7077;DHT22;3579;48.956;9.154;2023-07-09T09:28:03;31.70;38.30
7077;DHT22;3579;48.956;9.154;2023-07-09T09:30:30;31.70;38.90
7077;DHT22;3579;48.956;9.154;2023-07-09T09:33:08;31.70;38.30
7077;DHT22;3579;48.956;9.154;2023-07-09T09:35:40;31.70;38.30
7077;DHT22;3579;48.956;9.154;2023-07-09T09:38:16;31.70;38.40
7077;DHT22;3579;48.956;9.154;2023-07-09T09:40:42;31.70;38.40
7077;DHT22;3579;48.956;9.154;2023-07-09T09:43:17;31.70;38.40
7077;DHT22;3579;48.956;9.154;2023-07-09T09:45:47;31.70;38.40
7077;DHT22;3579;48.956;9.154;2023-07-09T09:48:34;31.70;38.40
7077;DHT22;3579;48.956;9.154;2023-07-09T09:51:04;31.70;38.40
7077;DHT22;3579;48.956;9.154;2023-07-09T09:53:38;31.70;38.40
7077;DHT22;3579;48.956;9.154;2023-07-09T09:56:09;31.70;38.40
7077;DHT22;3579;48.956;9.154;2023-07-09T09:58:40;31.70;38.40
7077;DHT22;3579;48.956;9.154;2023-07-09T10:01:14;31.70;38.50
7077;DHT22;3579;48.956;9.154;2023-07-09T10:03:41;31.70;38.50
7077;DHT22;3579;48.956;9.154;2023-07-09T10:06:17;31.70;39.00
7077;DHT22;3579;48.956;9.154;2023-07-09T10:08:54;31.70;38.50
7077;DHT22;3579;48.956;9.154;2023-07-09T10:11:45;31.70;38.50
7077;DHT22;3579;48.956;9.154;2023-07-09T10:17:38;31.70;38.50
7077;DHT22;3579;48.956;9.154;2023-07-09T10:20:47;31.70;38.50
7077;DHT22;3579;48.956;9.154;2023-07-09T10:23:47;31.70;38.50
7077;DHT22;3579;48.956;9.154;2023-07-09T10:26:23;31.70;38.60
7077;DHT22;3579;48.956;9.154;2023-07-09T10:28:57;31.70;38.60
7077;DHT22;3579;48.956;9.154;2023-07-09T10:37:14;31.70;38.70
7077;DHT22;3579;48.956;9.154;2023-07-09T10:39:53;31.70;38.70
7077;DHT22;3579;48.956;9.154;2023-07-09T10:42:30;31.70;38.70
7077;DHT22;3579;48.956;9.154;2023-07-09T10:45:12;31.70;38.70
7077;DHT22;3579;48.956;9.154;2023-07-09T10:47:43;31.70;38.80
7077;DHT22;3579;48.956;9.154;2023-07-09T10:50:40;31.70;38.70
7077;DHT22;3579;48.956;9.154;2023-07-09T10:53:16;31.70;38.70
7077;DHT22;3579;48.956;9.154;2023-07-09T10:55:54;31.70;38.80
7077;DHT22;3579;48.956;9.154;2023-07-09T11:01:15;31.60;38.80
7077;DHT22;3579;48.956;9.154;2023-07-09T11:03:51;31.70;38.80
7077;DHT22;3579;48.956;9.154;2023-07-09T11:06:28;31.70;38.90
7077;DHT22;3579;48.956;9.154;2023-07-09T11:08:57;31.70;38.90
7077;DHT22;3579;48.956;9.154;2023-07-09T11:11:55;31.60;38.80
7077;DHT22;3579;48.956;9.154;2023-07-09T11:17:04;31.60;38.80
7077;DHT22;3579;48.956;9.154;2023-07-09T11:19:31;31.60;38.80
7077;DHT22;3579;48.956;9.154;2023-07-09T11:22:03;31.60;38.80
7077;DHT22;3579;48.956;9.154;2023-07-09T11:25:27;31.60;38.90
7077;DHT22;3579;48.956;9.154;2023-07-09T11:27:27;31.60;38.90
7077;DHT22;3579;48.956;9.154;2023-07-09T11:30:19;31.60;38.90
7077;DHT22;3579;48.956;9.154;2023-07-09T11:32:46;31.60;38.90
7077;DHT22;3579;48.956;9.154;2023-07-09T11:35:27;31.60;38.90
7077;DHT22;3579;48.956;9.154;2023-07-09T11:37:55;31.60;38.90
7077;DHT22;3579;48.956;9.154;2023-07-09T11:40:23;31.60;38.90
7077;DHT22;3579;48.956;9.154;2023-07-09T11:42:56;31.60;39.00
7077;DHT22;3579;48.956;9.154;2023-07-09T11:45:31;31.60;39.00
7077;DHT22;3579;48.956;9.154;2023-07-09T11:50:44;31.60;39.00
7077;DHT22;3579;48.956;9.154;2023-07-09T11:55:48;31.60;39.00
7077;DHT22;3579;48.956;9.154;2023-07-09T11:58:17;31.60;39.00
7077;DHT22;3579;48.956;9.154;2023-07-09T12:00:48;31.60;39.00
7077;DHT22;3579;48.956;9.154;2023-07-09T12:03:21;31.60;39.00
7077;DHT22;3579;48.956;9.154;2023-07-09T12:05:53;31.60;39.00
7077;DHT22;3579;48.956;9.154;2023-07-09T12:08:30;31.60;39.00
7077;DHT22;3579;48.956;9.154;2023-07-09T12:10:58;31.60;39.00
7077;DHT22;3579;48.956;9.154;2023-07-09T12:13:24;31.60;39.00
7077;DHT22;3579;48.956;9.154;2023-07-09T12:15:50;31.60;39.00
7077;DHT22;3579;48.956;9.154;2023-07-09T12:18:16;31.60;39.00
7077;DHT22;3579;48.956;9.154;2023-07-09T12:20:52;31.60;39.00
7077;DHT22;3579;48.956;9.154;2023-07-09T12:23:29;31.60;39.00
7077;DHT22;3579;48.956;9.154;2023-07-09T12:25:59;31.60;39.00
7077;DHT22;3579;48.956;9.154;2023-07-09T12:28:29;31.60;39.60
7077;DHT22;3579;48.956;9.154;2023-07-09T12:30:55;31.60;39.00
7077;DHT22;3579;48.956;9.154;2023-07-09T12:33:26;31.60;39.00
7077;DHT22;3579;48.956;9.154;2023-07-09T12:36:05;31.60;39.00
7077;DHT22;3579;48.956;9.154;2023-07-09T12:38:43;31.60;39.00
7077;DHT22;3579;48.956;9.154;2023-07-09T12:44:21;31.60;39.00
7077;DHT22;3579;48.956;9.154;2023-07-09T12:46:49;31.60;39.60
7077;DHT22;3579;48.956;9.154;2023-07-09T12:49:27;31.60;39.00
7077;DHT22;3579;48.956;9.154;2023-07-09T12:51:55;31.60;39.00
7077;DHT22;3579;48.956;9.154;2023-07-09T12:54:22;31.60;39.10
7077;DHT22;3579;48.956;9.154;2023-07-09T12:56:53;31.60;39.10
7077;DHT22;3579;48.956;9.154;2023-07-09T12:59:21;31.60;39.10
7077;DHT22;3579;48.956;9.154;2023-07-09T13:01:56;31.60;39.10
7077;DHT22;3579;48.956;9.154;2023-07-09T13:04:31;31.60;39.10
7077;DHT22;3579;48.956;9.154;2023-07-09T13:06:57;31.60;39.10
7077;DHT22;3579;48.956;9.154;2023-07-09T13:09:26;31.60;39.10
7077;DHT22;3579;48.956;9.154;2023-07-09T13:11:53;31.60;39.20
7077;DHT22;3579;48.956;9.154;2023-07-09T13:14:25;31.60;39.10
7077;DHT22;3579;48.956;9.154;2023-07-09T13:16:52;31.60;39.20
7077;DHT22;3579;48.956;9.154;2023-07-09T13:19:18;31.60;39.10
7077;DHT22;3579;48.956;9.154;2023-07-09T13:21:45;31.70;39.10
7077;DHT22;3579;48.956;9.154;2023-07-09T13:24:23;31.70;39.20
7077;DHT22;3579;48.956;9.154;2023-07-09T13:26:49;31.60;39.20
7077;DHT22;3579;48.956;9.154;2023-07-09T13:29:17;31.70;39.10
7077;DHT22;3579;48.956;9.154;2023-07-09T13:31:44;31.60;39.10
7077;DHT22;3579;48.956;9.154;2023-07-09T13:34:27;31.60;39.20
7077;DHT22;3579;48.956;9.154;2023-07-09T13:36:57;31.70;39.30
7077;DHT22;3579;48.956;9.154;2023-07-09T13:39:23;31.60;39.20
7077;DHT22;3579;48.956;9.154;2023-07-09T13:41:50;31.60;39.20
7077;DHT22;3579;48.956;9.154;2023-07-09T13:44:25;31.70;39.30
7077;DHT22;3579;48.956;9.154;2023-07-09T13:46:52;31.60;39.20
7077;DHT22;3579;48.956;9.154;2023-07-09T13:49:20;31.70;39.30
7077;DHT22;3579;48.956;9.154;2023-07-09T13:51:48;31.70;39.20
7077;DHT22;3579;48.956;9.154;2023-07-09T13:54:26;31.70;39.30
7077;DHT22;3579;48.956;9.154;2023-07-09T13:56:53;31.70;39.30
7077;DHT22;3579;48.956;9.154;2023-07-09T13:59:24;31.70;39.90
7077;DHT22;3579;48.956;9.154;2023-07-09T14:01:54;31.70;39.30
7077;DHT22;3579;48.956;9.154;2023-07-09T14:04:21;31.70;39.30
7077;DHT22;3579;48.956;9.154;2023-07-09T14:06:47;31.70;39.30
7077;DHT22;3579;48.956;9.154;2023-07-09T14:09:14;31.70;39.30
7077;DHT22;3579;48.956;9.154;2023-07-09T14:11:47;31.70;39.30
7077;DHT22;3579;48.956;9.154;2023-07-09T14:14:18;31.70;39.30
7077;DHT22;3579;48.956;9.154;2023-07-09T14:16:47;31.70;39.30
7077;DHT22;3579;48.956;9.154;2023-07-09T14:19:16;31.70;39.30
7077;DHT22;3579;48.956;9.154;2023-07-09T14:21:42;31.70;39.30
7077;DHT22;3579;48.956;9.154;2023-07-09T14:24:24;31.70;39.30
7077;DHT22;3579;48.956;9.154;2023-07-09T14:26:51;31.70;39.20
7077;DHT22;3579;48.956;9.154;2023-07-09T14:29:18;31.70;39.30
7077;DHT22;3579;48.956;9.154;2023-07-09T14:31:45;31.70;39.30
7077;DHT22;3579;48.956;9.154;2023-07-09T14:36:45;31.70;39.20
7077;DHT22;3579;48.956;9.154;2023-07-09T14:39:12;31.80;39.30
7077;DHT22;3579;48.956;9.154;2023-07-09T14:41:38;31.80;39.30
7077;DHT22;3579;48.956;9.154;2023-07-09T14:44:31;31.80;39.20
7077;DHT22;3579;48.956;9.154;2023-07-09T14:46:59;31.80;39.20
7077;DHT22;3579;48.956;9.154;2023-07-09T14:49:27;31.80;39.20
7077;DHT22;3579;48.956;9.154;2023-07-09T14:51:53;31.80;39.30
7077;DHT22;3579;48.956;9.154;2023-07-09T14:54:21;31.80;39.30
7077;DHT22;3579;48.956;9.154;2023-07-09T14:56:48;31.80;39.30
7077;DHT22;3579;48.956;9.154;2023-07-09T14:59:15;31.80;39.30
7077;DHT22;3579;48.956;9.154;2023-07-09T15:01:42;31.80;39.30
7077;DHT22;3579;48.956;9.154;2023-07-09T15:06:48;31.80;39.20
7077;DHT22;3579;48.956;9.154;2023-07-09T15:09:14;31.80;39.20
7077;DHT22;3579;48.956;9.154;2023-07-09T15:11:40;31.80;39.20
7077;DHT22;3579;48.956;9.154;2023-07-09T15:14:12;31.80;39.20
7077;DHT22;3579;48.956;9.154;2023-07-09T15:16:39;31.90;39.30
7077;DHT22;3579;48.956;9.154;2023-07-09T15:19:12;31.80;39.20
7077;DHT22;3579;48.956;9.154;2023-07-09T15:21:39;31.80;39.20
7077;DHT22;3579;48.956;9.154;2023-07-09T15:24:19;31.80;39.20
7077;DHT22;3579;48.956;9.154;2023-07-09T15:26:49;31.80;39.20
7077;DHT22;3579;48.956;9.154;2023-07-09T15:29:18;31.90;39.20
7077;DHT22;3579;48.956;9.154;2023-07-09T15:31:44;31.90;39.10
7077;DHT22;3579;48.956;9.154;2023-07-09T15:34:10;31.90;39.10
7077;DHT22;3579;48.956;9.154;2023-07-09T15:36:36;31.90;39.10
7077;DHT22;3579;48.956;9.154;2023-07-09T15:39:03;31.90;39.10
7077;DHT22;3579;48.956;9.154;2023-07-09T15:41:29;31.90;39.10
7077;DHT22;3579;48.956;9.154;2023-07-09T15:43:55;31.90;39.20
7077;DHT22;3579;48.956;9.154;2023-07-09T15:46:22;31.90;39.10
7077;DHT22;3579;48.956;9.154;2023-07-09T15:48:50;31.90;39.20
7077;DHT22;3579;48.956;9.154;2023-07-09T15:51:16;31.90;39.20
7077;DHT22;3579;48.956;9.154;2023-07-09T15:53:42;31.90;39.10
7077;DHT22;3579;48.956;9.154;2023-07-09T15:56:20;31.90;39.10
7077;DHT22;3579;48.956;9.154;2023-07-09T15:58:48;31.90;39.10
7077;DHT22;3579;48.956;9.154;2023-07-09T16:01:17;31.90;39.10
7077;DHT22;3579;48.956;9.154;2023-07-09T16:03:47;31.90;39.10
7077;DHT22;3579;48.956;9.154;2023-07-09T16:06:14;31.90;39.10
7077;DHT22;3579;48.956;9.154;2023-07-09T16:08:40;31.90;39.20
7077;DHT22;3579;48.956;9.154;2023-07-09T16:11:24;31.80;39.10
7077;DHT22;3579;48.956;9.154;2023-07-09T16:13:52;31.80;39.10
7077;DHT22;3579;48.956;9.154;2023-07-09T16:16:21;31.80;39.20
7077;DHT22;3579;48.956;9.154;2023-07-09T16:18:47;31.80;39.20
7077;DHT22;3579;48.956;9.154;2023-07-09T16:21:28;31.80;39.20
7077;DHT22;3579;48.956;9.154;2023-07-09T16:23:57;31.80;39.30
7077;DHT22;3579;48.956;9.154;2023-07-09T16:26:24;31.80;39.30
7077;DHT22;3579;48.956;9.154;2023-07-09T16:28:51;31.80;39.40
7077;DHT22;3579;48.956;9.154;2023-07-09T16:31:17;31.80;39.40
7077;DHT22;3579;48.956;9.154;2023-07-09T16:33:43;31.80;39.40
7077;DHT22;3579;48.956;9.154;2023-07-09T16:36:16;31.80;39.40
7077;DHT22;3579;48.956;9.154;2023-07-09T16:38:44;31.10;39.00
7077;DHT22;3579;48.956;9.154;2023-07-09T16:41:11;31.80;39.40
7077;DHT22;3579;48.956;9.154;2023-07-09T16:43:40;31.80;39.50
7077;DHT22;3579;48.956;9.154;2023-07-09T16:46:20;31.80;39.50
7077;DHT22;3579;48.956;9.154;2023-07-09T16:48:48;31.80;39.50
7077;DHT22;3579;48.956;9.154;2023-07-09T16:51:14;31.80;39.50
7077;DHT22;3579;48.956;9.154;2023-07-09T16:53:40;31.80;39.50